createdAt,value
2022-11-14T00:02:43.069Z,26.60
2022-11-14T00:05:29.039Z,31.05
2022-11-14T00:08:39.870Z,28.00
2022-11-14T00:11:25.569Z,26.85
2022-11-14T00:23:29.825Z,33.88
2022-11-14T00:27:12.876Z,33.60
2022-11-14T00:34:34.162Z,31.52
2022-11-14T00:37:20.052Z,32.70
2022-11-14T00:40:06.204Z,32.22
2022-11-14T00:42:51.955Z,34.65
2022-11-14T00:45:37.966Z,33.13
2022-11-14T00:48:23.913Z,34.55
2022-11-14T00:51:09.540Z,34.97
2022-11-14T00:53:55.404Z,33.97
2022-11-14T00:56:41.268Z,34.50
2022-11-14T00:59:26.825Z,34.50
2022-11-14T01:02:12.723Z,36.25
2022-11-14T01:04:58.347Z,45.63
2022-11-14T01:07:44.189Z,45.20
2022-11-14T01:10:29.957Z,47.00
2022-11-14T01:13:16.919Z,46.05
2022-11-14T01:16:02.964Z,48.20
2022-11-14T01:18:48.703Z,47.25
2022-11-14T01:21:35.060Z,46.20
2022-11-14T01:24:21.021Z,43.65
2022-11-14T01:27:06.900Z,43.60
2022-11-14T01:29:52.970Z,38.83
2022-11-14T01:32:38.756Z,38.30
2022-11-14T01:35:24.612Z,40.00
2022-11-14T01:38:14.885Z,39.53
2022-11-14T01:41:00.808Z,37.28
2022-11-14T01:43:46.648Z,44.58
2022-11-14T01:46:38.026Z,44.80
2022-11-14T01:49:27.197Z,46.20
2022-11-14T01:52:18.361Z,48.53
2022-11-14T01:55:09.126Z,39.47
2022-11-14T01:57:55.655Z,39.28
2022-11-14T02:00:42.066Z,38.08
2022-11-14T02:03:28.120Z,37.92
2022-11-14T02:06:17.280Z,35.00
2022-11-14T02:09:05.548Z,35.15
2022-11-14T02:11:52.213Z,32.92
2022-11-14T02:14:38.108Z,35.08
2022-11-14T02:17:29.941Z,34.45
2022-11-14T02:20:31.696Z,33.33
2022-11-14T02:23:26.786Z,36.15
2022-11-14T02:26:12.577Z,35.70
2022-11-14T02:28:58.285Z,32.22
2022-11-14T02:31:43.877Z,32.17
2022-11-14T02:34:30.083Z,31.42
2022-11-14T02:37:16.162Z,30.40
2022-11-14T02:40:01.962Z,29.98
2022-11-14T02:42:47.664Z,32.70
2022-11-14T02:45:33.570Z,33.10
2022-11-14T02:48:19.472Z,33.35
2022-11-14T02:51:05.119Z,32.17
2022-11-14T02:53:50.938Z,29.85
2022-11-14T02:56:36.583Z,32.70
2022-11-14T02:59:22.619Z,33.35
2022-11-14T03:02:08.608Z,34.28
2022-11-14T03:04:54.685Z,32.83
2022-11-14T03:07:40.791Z,34.92
2022-11-14T03:10:26.710Z,32.17
2022-11-14T03:13:12.296Z,32.88
2022-11-14T03:15:58.119Z,30.10
2022-11-14T03:18:43.840Z,29.63
2022-11-14T03:21:29.571Z,28.60
2022-11-14T03:24:15.322Z,26.50
2022-11-14T03:27:01.527Z,28.02
2022-11-14T03:29:50.505Z,26.15
2022-11-14T03:32:36.375Z,27.02
2022-11-14T03:35:22.055Z,25.65
2022-11-14T03:38:07.773Z,26.40
2022-11-14T03:40:53.462Z,24.48
2022-11-14T03:43:39.021Z,27.00
2022-11-14T03:46:24.707Z,30.05
2022-11-14T03:49:10.886Z,27.50
2022-11-14T03:51:56.859Z,26.40
2022-11-14T03:54:42.646Z,29.98
2022-11-14T03:57:28.219Z,28.02
2022-11-14T04:00:13.919Z,26.90
2022-11-14T04:02:59.872Z,28.90
2022-11-14T04:05:45.847Z,28.38
2022-11-14T04:08:31.988Z,26.02
2022-11-14T04:11:19.246Z,26.70
2022-11-14T04:14:05.239Z,27.45
2022-11-14T04:16:50.896Z,26.58
2022-11-14T04:19:37.114Z,26.90
2022-11-14T04:22:23.134Z,25.35
2022-11-14T04:25:09.624Z,25.65
2022-11-14T04:27:55.323Z,25.77
2022-11-14T04:30:41.555Z,29.20
2022-11-14T04:33:27.269Z,27.10
2022-11-14T04:36:13.460Z,27.27
2022-11-14T04:38:59.174Z,26.95
2022-11-14T04:41:45.654Z,28.00
2022-11-14T04:44:31.363Z,26.73
2022-11-14T04:47:16.938Z,28.38
2022-11-14T04:50:03.841Z,25.73
2022-11-14T04:52:53.715Z,27.23
2022-11-14T04:55:39.464Z,27.83
2022-11-14T04:58:25.597Z,25.55
2022-11-14T05:01:12.154Z,24.60
2022-11-14T05:03:58.201Z,22.60
2022-11-14T05:06:44.163Z,23.13
2022-11-14T05:09:29.900Z,21.45
2022-11-14T05:12:15.852Z,23.73
2022-11-14T05:15:01.490Z,25.45
2022-11-14T05:17:47.166Z,24.17
2022-11-14T05:20:33.298Z,26.15
2022-11-14T05:23:20.887Z,24.08
2022-11-14T05:26:09.013Z,25.30
2022-11-14T05:28:54.714Z,24.77
2022-11-14T05:31:40.431Z,25.27
2022-11-14T05:34:26.599Z,26.48
2022-11-14T05:37:12.771Z,27.98
2022-11-14T05:39:58.561Z,23.42
2022-11-14T05:42:44.296Z,26.83
2022-11-14T05:45:31.150Z,27.80
2022-11-14T05:48:16.844Z,28.02
2022-11-14T05:51:04.503Z,25.05
2022-11-14T05:53:50.397Z,29.20
2022-11-14T05:56:35.983Z,26.15
2022-11-14T05:59:21.919Z,25.85
2022-11-14T06:02:08.046Z,24.20
2022-11-14T06:04:53.998Z,24.65
2022-11-14T06:07:39.951Z,27.55
2022-11-14T06:10:26.218Z,31.35
2022-11-14T06:13:11.863Z,26.58
2022-11-14T06:16:08.405Z,26.45
2022-11-14T06:18:54.310Z,29.10
2022-11-14T06:21:39.987Z,27.33
2022-11-14T06:24:25.636Z,27.55
2022-11-14T06:27:25.776Z,23.95
2022-11-14T06:30:11.907Z,24.38
2022-11-14T06:34:01.951Z,24.17
2022-11-14T06:36:47.604Z,27.63
2022-11-14T06:39:33.545Z,29.50
2022-11-14T06:42:19.353Z,23.80
2022-11-14T06:45:05.288Z,23.40
2022-11-14T06:47:51.189Z,32.40
2022-11-14T06:50:36.965Z,36.20
2022-11-14T06:53:23.374Z,31.80
2022-11-14T06:56:12.008Z,30.73
2022-11-14T06:58:58.209Z,29.13
2022-11-14T07:01:45.037Z,29.02
2022-11-14T07:04:31.995Z,30.02
2022-11-14T07:07:17.851Z,25.27
2022-11-14T07:10:04.008Z,23.27
2022-11-14T07:12:50.408Z,26.73
2022-11-14T07:15:36.408Z,24.52
2022-11-14T07:18:21.950Z,25.17
2022-11-14T07:21:07.622Z,26.80
2022-11-14T07:23:53.545Z,24.00
2022-11-14T07:26:39.537Z,26.02
2022-11-14T07:29:25.588Z,23.02
2022-11-14T07:32:11.119Z,31.27
2022-11-14T07:35:01.933Z,29.02
2022-11-14T07:37:48.987Z,28.23
2022-11-14T07:40:34.813Z,26.98
2022-11-14T07:43:20.599Z,29.13
2022-11-14T07:46:17.302Z,27.98
2022-11-14T07:49:03.355Z,26.35
2022-11-14T07:51:49.094Z,24.65
2022-11-14T07:54:34.917Z,24.83
2022-11-14T07:57:20.961Z,29.38
2022-11-14T08:00:10.755Z,27.70
2022-11-14T08:02:56.850Z,21.38
2022-11-14T08:05:42.733Z,18.40
2022-11-14T08:08:29.331Z,19.23
2022-11-14T08:11:31.833Z,16.67
2022-11-14T08:14:20.762Z,16.75
2022-11-14T08:17:07.039Z,16.75
2022-11-14T08:19:52.733Z,16.77
2022-11-14T08:22:39.321Z,17.70
2022-11-14T08:25:25.167Z,16.92
2022-11-14T08:28:10.745Z,19.33
2022-11-14T08:31:01.984Z,16.20
2022-11-14T08:33:50.354Z,21.33
2022-11-14T08:36:36.277Z,16.08
2022-11-14T08:39:22.391Z,18.17
2022-11-14T08:42:08.584Z,17.27
2022-11-14T08:44:54.397Z,16.63
2022-11-14T08:47:40.063Z,17.30
2022-11-14T08:50:26.237Z,20.23
2022-11-14T08:53:12.117Z,16.17
2022-11-14T08:56:05.551Z,17.45
2022-11-14T08:58:54.869Z,30.63
2022-11-14T09:01:41.073Z,24.10
2022-11-14T09:04:26.701Z,16.13
2022-11-14T09:07:12.608Z,16.73
2022-11-14T09:10:00.616Z,18.80
2022-11-14T09:12:57.394Z,14.13
2022-11-14T09:15:44.566Z,29.25
2022-11-14T09:18:31.230Z,15.27
2022-11-14T09:21:17.355Z,16.00
2022-11-14T09:24:02.967Z,16.48
2022-11-14T09:26:56.447Z,17.98
2022-11-14T09:29:43.259Z,15.88
2022-11-14T09:38:25.065Z,17.48
2022-11-14T09:41:27.019Z,15.77
2022-11-14T09:44:39.080Z,17.80
2022-11-14T09:47:46.856Z,17.98
2022-11-14T09:50:40.632Z,19.67
2022-11-14T09:53:32.451Z,19.60
2022-11-14T09:56:26.753Z,18.73
2022-11-14T09:59:14.155Z,18.30
2022-11-14T10:02:17.065Z,19.10
2022-11-14T10:06:02.108Z,16.75
2022-11-14T10:09:24.860Z,21.55
2022-11-14T10:12:37.650Z,21.27
2022-11-14T10:15:34.009Z,19.63
2022-11-14T10:18:33.543Z,24.58
2022-11-14T10:21:27.100Z,22.23
2022-11-14T10:24:44.569Z,21.13
2022-11-14T10:27:36.361Z,19.75
2022-11-14T10:30:22.536Z,21.38
2022-11-14T10:33:42.294Z,23.73
2022-11-14T10:37:01.172Z,24.35
2022-11-14T10:39:50.406Z,17.17
2022-11-14T10:42:38.743Z,22.55
2022-11-14T10:45:33.383Z,23.33
2022-11-14T10:48:39.901Z,18.63
2022-11-14T10:51:44.390Z,22.27
2022-11-14T10:54:46.735Z,24.20
2022-11-14T10:57:33.010Z,22.20
2022-11-14T11:00:22.933Z,22.25
2022-11-14T11:03:09.058Z,19.98
2022-11-14T11:06:00.348Z,22.88
2022-11-14T11:09:04.583Z,18.73
2022-11-14T11:11:58.639Z,18.77
2022-11-14T11:14:45.690Z,19.85
2022-11-14T11:17:38.494Z,21.02
2022-11-14T11:20:39.099Z,22.65
2022-11-14T11:23:26.818Z,30.33
2022-11-14T11:26:24.198Z,25.20
2022-11-14T11:29:09.840Z,18.75
2022-11-14T11:32:00.713Z,19.27
2022-11-14T11:34:46.773Z,21.67
2022-11-14T11:37:55.116Z,26.52
2022-11-14T11:40:43.518Z,22.65
2022-11-14T11:43:39.860Z,24.27
2022-11-14T11:46:35.527Z,23.33
2022-11-14T11:49:27.338Z,20.88
2022-11-14T11:53:01.067Z,20.73
2022-11-14T11:55:51.188Z,22.67
2022-11-14T11:58:58.924Z,26.65
2022-11-14T12:01:44.837Z,44.63
2022-11-14T12:04:30.966Z,41.35
2022-11-14T12:07:19.567Z,47.70
2022-11-14T12:10:19.985Z,56.22
2022-11-14T12:13:24.452Z,106.60
2022-11-14T12:16:28.542Z,51.42
2022-11-14T12:19:55.241Z,42.20
2022-11-14T12:23:19.838Z,35.80
2022-11-14T12:26:13.878Z,24.25
2022-11-14T12:29:32.345Z,29.10
2022-11-14T12:32:40.027Z,29.05
2022-11-14T12:35:30.014Z,26.17
2022-11-14T12:38:19.534Z,24.20
2022-11-14T12:41:07.508Z,28.08
2022-11-14T12:43:53.494Z,27.60
2022-11-14T12:47:04.551Z,23.35
2022-11-14T12:49:53.648Z,24.30
2022-11-14T12:52:54.069Z,27.08
2022-11-14T12:55:45.881Z,26.90
2022-11-14T12:58:56.110Z,22.25
2022-11-14T13:04:42.392Z,26.95
2022-11-14T13:07:55.816Z,26.80
2022-11-14T13:10:41.631Z,25.98
2022-11-14T13:13:46.257Z,28.25
2022-11-14T13:16:51.154Z,27.23
2022-11-14T13:20:04.438Z,21.35
2022-11-14T13:22:50.502Z,24.27
2022-11-14T13:25:36.505Z,24.92
2022-11-14T13:28:37.326Z,25.10
2022-11-14T13:31:50.452Z,27.27
2022-11-14T13:34:52.440Z,24.30
2022-11-14T13:37:44.580Z,25.15
2022-11-14T13:40:45.211Z,24.80
2022-11-14T13:43:52.351Z,23.60
2022-11-14T13:46:57.723Z,24.23
2022-11-14T13:50:00.366Z,23.08
2022-11-14T13:52:48.217Z,24.13
2022-11-14T13:55:36.774Z,23.83
2022-11-14T13:58:38.516Z,21.45
2022-11-14T14:01:30.018Z,29.67
2022-11-14T14:04:53.716Z,24.52
2022-11-14T14:07:54.421Z,22.70
2022-11-14T14:11:03.384Z,22.60
2022-11-14T14:14:32.958Z,25.75
2022-11-14T14:17:50.931Z,23.33
2022-11-14T14:20:47.581Z,22.98
2022-11-14T14:23:42.889Z,21.13
2022-11-14T14:26:34.686Z,25.55
2022-11-14T14:29:26.407Z,29.58
2022-11-14T14:32:13.949Z,22.40
2022-11-14T14:35:00.687Z,23.60
2022-11-14T14:37:51.443Z,21.80
2022-11-14T14:40:39.498Z,27.88
2022-11-14T14:43:30.639Z,22.85
2022-11-14T14:46:16.891Z,18.90
2022-11-14T14:49:04.677Z,22.17
2022-11-14T14:51:53.300Z,19.77
2022-11-14T14:54:43.018Z,23.45
2022-11-14T14:57:30.295Z,28.05
2022-11-14T15:00:26.328Z,19.45
2022-11-14T15:03:12.116Z,20.15
2022-11-14T15:06:02.462Z,22.13
2022-11-14T15:08:48.975Z,23.17
2022-11-14T15:11:35.974Z,17.90
2022-11-14T15:14:24.926Z,19.13
2022-11-14T15:17:10.945Z,21.23
2022-11-14T15:19:57.502Z,16.00
2022-11-14T15:22:43.107Z,20.42
2022-11-14T15:25:29.214Z,22.65
2022-11-14T15:28:21.536Z,15.80
2022-11-14T15:31:12.884Z,19.80
2022-11-14T15:34:43.096Z,19.77
2022-11-14T15:37:28.756Z,17.65
2022-11-14T15:40:19.611Z,16.52
2022-11-14T15:46:33.797Z,17.80
2022-11-14T15:49:22.344Z,21.20
2022-11-14T15:52:19.235Z,21.75
2022-11-14T15:55:13.915Z,24.15
2022-11-14T15:58:21.352Z,21.92
2022-11-14T16:01:06.311Z,18.42
2022-11-14T16:03:52.103Z,21.05
2022-11-14T16:06:38.208Z,20.20
2022-11-14T16:09:24.079Z,20.63
2022-11-14T16:12:09.810Z,25.80
2022-11-14T16:14:55.476Z,21.33
2022-11-14T16:17:43.769Z,27.33
2022-11-14T16:20:31.438Z,21.48
2022-11-14T16:23:18.519Z,25.55
2022-11-14T16:26:04.409Z,23.75
2022-11-14T16:28:49.914Z,22.08
2022-11-14T16:31:36.060Z,19.20
2022-11-14T16:34:24.187Z,23.75
2022-11-14T16:37:12.947Z,20.15
2022-11-14T16:39:58.691Z,23.92
2022-11-14T16:42:44.575Z,23.33
2022-11-14T16:45:30.348Z,22.42
2022-11-14T16:48:16.510Z,18.80
2022-11-14T16:51:14.789Z,19.00
2022-11-14T16:54:05.987Z,23.25
2022-11-14T16:56:51.821Z,21.08
2022-11-14T16:59:37.677Z,23.65
2022-11-14T17:02:24.615Z,25.35
2022-11-14T17:05:10.789Z,16.35
2022-11-14T17:07:56.799Z,22.58
2022-11-14T17:10:43.658Z,26.02
2022-11-14T17:13:31.020Z,21.50
2022-11-14T17:16:17.470Z,21.15
2022-11-14T17:19:03.593Z,19.17
2022-11-14T17:21:50.046Z,22.00
2022-11-14T17:24:35.742Z,20.55
2022-11-14T17:27:21.357Z,19.77
2022-11-14T17:30:11.430Z,18.98
2022-11-14T17:32:57.120Z,22.92
2022-11-14T17:35:42.890Z,21.00
2022-11-14T17:38:32.120Z,24.67
2022-11-14T17:41:18.470Z,21.77
2022-11-14T17:44:04.248Z,22.27
2022-11-14T17:46:50.271Z,23.17
2022-11-14T17:49:35.829Z,23.35
2022-11-14T17:52:22.166Z,21.95
2022-11-14T17:55:08.248Z,19.00
2022-11-14T17:57:54.165Z,23.67
2022-11-14T18:00:40.048Z,21.95
2022-11-14T18:03:26.286Z,24.13
2022-11-14T18:06:19.155Z,31.67
2022-11-14T18:09:08.104Z,22.65
2022-11-14T18:11:56.196Z,22.98
2022-11-14T18:14:42.280Z,23.27
2022-11-14T18:17:27.823Z,25.38
2022-11-14T18:20:13.750Z,20.88
2022-11-14T18:22:59.505Z,23.42
2022-11-14T18:25:45.252Z,27.15
2022-11-14T18:28:31.522Z,21.45
2022-11-14T18:31:17.780Z,24.58
2022-11-14T18:34:04.120Z,20.80
2022-11-14T18:36:49.857Z,28.58
2022-11-14T18:39:35.669Z,27.52
2022-11-14T18:42:21.627Z,26.73
2022-11-14T18:45:07.991Z,24.38
2022-11-14T18:47:53.526Z,20.90
2022-11-14T18:50:39.627Z,19.02
2022-11-14T18:53:26.032Z,24.85
2022-11-14T18:56:14.122Z,19.02
2022-11-14T18:59:00.533Z,21.55
2022-11-14T19:01:46.578Z,18.45
2022-11-14T19:04:32.491Z,19.00
2022-11-14T19:07:18.865Z,22.55
2022-11-14T19:10:04.912Z,19.98
2022-11-14T19:12:50.813Z,18.13
2022-11-14T19:15:36.518Z,21.83
2022-11-14T19:18:22.343Z,18.20
2022-11-14T19:21:08.073Z,16.63
2022-11-14T19:23:54.732Z,19.10
2022-11-14T19:26:40.531Z,14.57
2022-11-14T19:29:26.532Z,11.27
2022-11-14T19:32:12.695Z,18.55
2022-11-14T19:34:59.706Z,13.38
2022-11-14T19:37:45.791Z,14.13
2022-11-14T19:40:31.401Z,13.52
2022-11-14T19:43:19.371Z,14.25
2022-11-14T19:46:06.227Z,13.93
2022-11-14T19:49:02.510Z,10.50
2022-11-14T19:51:49.977Z,16.75
2022-11-14T19:54:36.045Z,17.27
2022-11-14T19:57:21.941Z,13.27
2022-11-14T20:00:08.225Z,12.90
2022-11-14T20:02:54.342Z,11.90
2022-11-14T20:05:40.676Z,13.65
2022-11-14T20:08:26.664Z,13.52
2022-11-14T20:11:12.404Z,12.52
2022-11-14T20:13:59.093Z,13.18
2022-11-14T20:16:45.931Z,13.30
2022-11-14T20:19:31.613Z,17.42
2022-11-14T20:22:18.304Z,13.85
2022-11-14T20:25:04.511Z,16.42
2022-11-14T20:27:50.326Z,15.27
2022-11-14T20:30:40.131Z,16.73
2022-11-14T20:33:26.564Z,12.07
2022-11-14T20:36:15.058Z,13.15
2022-11-14T20:39:00.748Z,11.63
2022-11-14T20:41:47.795Z,13.40
2022-11-14T20:44:44.394Z,10.88
2022-11-14T20:47:30.477Z,11.55
2022-11-14T20:50:16.479Z,11.43
2022-11-14T20:53:02.210Z,13.13
2022-11-14T20:55:53.806Z,12.10
2022-11-14T20:58:41.166Z,13.82
2022-11-14T21:01:27.043Z,11.63
2022-11-14T21:04:13.050Z,12.82
2022-11-14T21:06:59.327Z,10.48
2022-11-14T21:09:45.418Z,13.45
2022-11-14T21:12:30.920Z,9.15
2022-11-14T21:15:16.743Z,7.78
2022-11-14T21:18:02.734Z,12.18
2022-11-14T21:20:48.272Z,7.68
2022-11-14T21:23:34.797Z,8.52
2022-11-14T21:26:22.084Z,11.52
2022-11-14T21:29:12.949Z,8.10
2022-11-14T21:31:58.842Z,10.07
2022-11-14T21:34:45.278Z,10.88
2022-11-14T21:37:30.856Z,9.93
2022-11-14T21:40:16.938Z,8.80
2022-11-14T21:43:03.416Z,8.32
2022-11-14T21:46:17.519Z,10.23
2022-11-14T21:49:03.264Z,13.30
2022-11-14T21:51:48.849Z,12.95
2022-11-14T21:54:34.512Z,10.63
2022-11-14T21:57:20.220Z,11.40
2022-11-14T22:00:08.836Z,8.63
2022-11-14T22:03:17.721Z,9.55
2022-11-14T22:06:04.741Z,8.82
2022-11-14T22:08:54.950Z,10.07
2022-11-14T22:14:26.663Z,9.35
2022-11-14T22:17:12.609Z,11.45
2022-11-14T22:19:58.311Z,10.40
2022-11-14T22:22:43.985Z,9.98
2022-11-14T22:25:29.511Z,12.85
2022-11-14T22:28:15.557Z,15.20
2022-11-14T22:31:10.724Z,8.27
2022-11-14T22:33:58.247Z,8.73
2022-11-14T22:36:44.167Z,7.68
2022-11-14T22:39:29.787Z,8.02
2022-11-14T22:42:15.341Z,7.35
2022-11-14T22:45:01.253Z,9.05
2022-11-14T22:47:47.321Z,5.03
2022-11-14T22:50:32.952Z,7.53
2022-11-14T22:53:18.896Z,6.10
2022-11-14T22:56:06.787Z,5.55
2022-11-14T22:58:52.437Z,5.40
2022-11-14T23:01:37.870Z,6.40
2022-11-14T23:04:23.992Z,6.65
2022-11-14T23:07:09.595Z,8.07
2022-11-14T23:09:55.213Z,8.93
2022-11-14T23:12:41.382Z,7.68
2022-11-14T23:15:27.141Z,6.07
2022-11-14T23:18:12.859Z,10.25
2022-11-14T23:21:07.462Z,7.65
2022-11-14T23:23:54.554Z,7.93
2022-11-14T23:26:40.397Z,9.80
2022-11-14T23:29:26.014Z,6.03
2022-11-14T23:32:11.847Z,7.60
2022-11-14T23:35:01.083Z,8.30
2022-11-14T23:37:46.993Z,6.75
2022-11-14T23:40:32.942Z,9.20
2022-11-14T23:43:18.710Z,7.93
2022-11-14T23:46:04.390Z,7.18
2022-11-14T23:48:51.638Z,9.50
2022-11-14T23:51:37.587Z,9.63
2022-11-14T23:54:23.709Z,10.32
2022-11-14T23:57:10.290Z,10.10
2022-11-14T23:59:56.258Z,8.25
